sensor_id;sensor_type;location;lat;lon;timestamp;temperature;humidity
5276;DHT22;2661;50.786;12.728;2023-06-22T00:00:59;17.20;99.90
5276;DHT22;2661;50.786;12.728;2023-06-22T00:03:25;17.20;1.00
5276;DHT22;2661;50.786;12.728;2023-06-22T00:05:52;17.30;1.00
5276;DHT22;2661;50.786;12.728;2023-06-22T00:08:19;17.40;1.00
5276;DHT22;2661;50.786;12.728;2023-06-22T00:10:46;17.40;1.00
5276;DHT22;2661;50.786;12.728;2023-06-22T00:13:13;17.40;1.00
5276;DHT22;2661;50.786;12.728;2023-06-22T00:15:40;17.30;1.00
5276;DHT22;2661;50.786;12.728;2023-06-22T00:18:08;17.20;1.00
5276;DHT22;2661;50.786;12.728;2023-06-22T00:20:35;17.10;1.00
5276;DHT22;2661;50.786;12.728;2023-06-22T00:23:05;17.00;99.90
5276;DHT22;2661;50.786;12.728;2023-06-22T00:25:35;17.00;1.00
5276;DHT22;2661;50.786;12.728;2023-06-22T00:28:02;17.00;74.50
5276;DHT22;2661;50.786;12.728;2023-06-22T00:30:29;16.90;58.10
5276;DHT22;2661;50.786;12.728;2023-06-22T00:32:57;16.80;82.20
5276;DHT22;2661;50.786;12.728;2023-06-22T00:35:25;16.80;99.90
5276;DHT22;2661;50.786;12.728;2023-06-22T00:37:58;16.80;99.90
5276;DHT22;2661;50.786;12.728;2023-06-22T00:40:31;16.80;99.90
5276;DHT22;2661;50.786;12.728;2023-06-22T00:42:59;16.90;99.90
5276;DHT22;2661;50.786;12.728;2023-06-22T00:45:26;16.90;99.90
5276;DHT22;2661;50.786;12.728;2023-06-22T00:47:55;16.90;1.00
5276;DHT22;2661;50.786;12.728;2023-06-22T00:50:22;17.00;1.00
5276;DHT22;2661;50.786;12.728;2023-06-22T00:52:51;16.80;1.00
5276;DHT22;2661;50.786;12.728;2023-06-22T00:55:18;16.80;16.60
5276;DHT22;2661;50.786;12.728;2023-06-22T00:57:45;16.80;16.50
5276;DHT22;2661;50.786;12.728;2023-06-22T01:00:12;16.80;15.30
5276;DHT22;2661;50.786;12.728;2023-06-22T01:02:43;16.80;1.00
5276;DHT22;2661;50.786;12.728;2023-06-22T01:05:13;16.80;99.90
5276;DHT22;2661;50.786;12.728;2023-06-22T01:07:42;16.80;99.90
5276;DHT22;2661;50.786;12.728;2023-06-22T01:10:15;16.70;99.90
5276;DHT22;2661;50.786;12.728;2023-06-22T01:12:44;16.70;99.90
5276;DHT22;2661;50.786;12.728;2023-06-22T01:15:13;16.70;99.90
5276;DHT22;2661;50.786;12.728;2023-06-22T01:17:42;16.90;1.00
5276;DHT22;2661;50.786;12.728;2023-06-22T01:20:10;17.10;1.00
5276;DHT22;2661;50.786;12.728;2023-06-22T01:22:43;17.10;1.00
5276;DHT22;2661;50.786;12.728;2023-06-22T01:25:13;17.10;1.00
5276;DHT22;2661;50.786;12.728;2023-06-22T01:30:30;17.10;1.00
5276;DHT22;2661;50.786;12.728;2023-06-22T01:33:00;17.10;99.90
5276;DHT22;2661;50.786;12.728;2023-06-22T01:35:29;16.90;1.00
5276;DHT22;2661;50.786;12.728;2023-06-22T01:37:55;16.80;1.00
5276;DHT22;2661;50.786;12.728;2023-06-22T01:40:22;16.60;1.00
5276;DHT22;2661;50.786;12.728;2023-06-22T01:42:49;16.50;1.00
5276;DHT22;2661;50.786;12.728;2023-06-22T01:45:16;16.50;1.00
5276;DHT22;2661;50.786;12.728;2023-06-22T01:47:43;16.60;1.00
5276;DHT22;2661;50.786;12.728;2023-06-22T01:50:11;16.70;1.00
5276;DHT22;2661;50.786;12.728;2023-06-22T01:52:37;16.70;1.00
5276;DHT22;2661;50.786;12.728;2023-06-22T01:55:04;16.60;1.00
5276;DHT22;2661;50.786;12.728;2023-06-22T01:57:32;16.50;1.00
5276;DHT22;2661;50.786;12.728;2023-06-22T01:59:59;16.40;1.00
5276;DHT22;2661;50.786;12.728;2023-06-22T02:02:27;16.40;1.00
5276;DHT22;2661;50.786;12.728;2023-06-22T02:04:58;16.30;1.00
5276;DHT22;2661;50.786;12.728;2023-06-22T02:07:28;16.20;1.00
5276;DHT22;2661;50.786;12.728;2023-06-22T02:09:56;16.20;99.90
5276;DHT22;2661;50.786;12.728;2023-06-22T02:12:23;16.20;99.90
5276;DHT22;2661;50.786;12.728;2023-06-22T02:14:51;16.30;99.90
5276;DHT22;2661;50.786;12.728;2023-06-22T02:17:18;16.20;68.60
5276;DHT22;2661;50.786;12.728;2023-06-22T02:19:45;16.20;99.90
5276;DHT22;2661;50.786;12.728;2023-06-22T02:22:12;16.20;99.90
5276;DHT22;2661;50.786;12.728;2023-06-22T02:24:41;16.10;99.90
5276;DHT22;2661;50.786;12.728;2023-06-22T02:27:08;16.40;1.00
5276;DHT22;2661;50.786;12.728;2023-06-22T02:29:34;16.50;99.90
5276;DHT22;2661;50.786;12.728;2023-06-22T02:32:01;16.60;1.00
5276;DHT22;2661;50.786;12.728;2023-06-22T02:34:27;16.60;1.00
5276;DHT22;2661;50.786;12.728;2023-06-22T02:36:54;16.60;1.00
5276;DHT22;2661;50.786;12.728;2023-06-22T02:39:21;16.60;1.00
5276;DHT22;2661;50.786;12.728;2023-06-22T02:41:49;16.70;1.00
5276;DHT22;2661;50.786;12.728;2023-06-22T02:44:16;16.60;99.90
5276;DHT22;2661;50.786;12.728;2023-06-22T02:46:43;16.50;1.00
5276;DHT22;2661;50.786;12.728;2023-06-22T02:49:09;16.60;1.00
5276;DHT22;2661;50.786;12.728;2023-06-22T02:51:38;16.50;1.00
5276;DHT22;2661;50.786;12.728;2023-06-22T02:54:06;16.40;1.00
5276;DHT22;2661;50.786;12.728;2023-06-22T02:56:32;16.30;1.00
5276;DHT22;2661;50.786;12.728;2023-06-22T02:58:59;16.30;1.00
5276;DHT22;2661;50.786;12.728;2023-06-22T03:01:27;16.30;39.50
5276;DHT22;2661;50.786;12.728;2023-06-22T03:03:56;16.30;1.00
5276;DHT22;2661;50.786;12.728;2023-06-22T03:06:23;16.30;99.90
5276;DHT22;2661;50.786;12.728;2023-06-22T03:08:59;16.20;1.00
5276;DHT22;2661;50.786;12.728;2023-06-22T03:11:26;16.20;69.50
5276;DHT22;2661;50.786;12.728;2023-06-22T03:13:52;16.20;99.90
5276;DHT22;2661;50.786;12.728;2023-06-22T03:16:19;16.20;99.90
5276;DHT22;2661;50.786;12.728;2023-06-22T03:18:46;16.20;99.90
5276;DHT22;2661;50.786;12.728;2023-06-22T03:21:12;16.20;99.90
5276;DHT22;2661;50.786;12.728;2023-06-22T03:23:39;16.30;99.90
5276;DHT22;2661;50.786;12.728;2023-06-22T03:26:05;16.30;1.00
5276;DHT22;2661;50.786;12.728;2023-06-22T03:28:32;16.40;1.00
5276;DHT22;2661;50.786;12.728;2023-06-22T03:30:58;16.30;1.00
5276;DHT22;2661;50.786;12.728;2023-06-22T03:33:25;16.40;1.00
5276;DHT22;2661;50.786;12.728;2023-06-22T03:35:52;16.40;1.00
5276;DHT22;2661;50.786;12.728;2023-06-22T03:38:20;16.40;99.90
5276;DHT22;2661;50.786;12.728;2023-06-22T03:40:46;16.30;99.90
5276;DHT22;2661;50.786;12.728;2023-06-22T03:43:13;16.20;1.00
5276;DHT22;2661;50.786;12.728;2023-06-22T03:45:39;16.10;1.00
5276;DHT22;2661;50.786;12.728;2023-06-22T03:48:06;16.10;1.00
5276;DHT22;2661;50.786;12.728;2023-06-22T03:50:33;16.00;1.00
5276;DHT22;2661;50.786;12.728;2023-06-22T03:52:59;16.10;99.90
5276;DHT22;2661;50.786;12.728;2023-06-22T03:55:27;16.20;99.90
5276;DHT22;2661;50.786;12.728;2023-06-22T03:57:53;16.20;99.90
5276;DHT22;2661;50.786;12.728;2023-06-22T04:00:23;16.20;99.90
5276;DHT22;2661;50.786;12.728;2023-06-22T04:02:50;16.20;99.90
5276;DHT22;2661;50.786;12.728;2023-06-22T04:05:16;16.30;99.90
5276;DHT22;2661;50.786;12.728;2023-06-22T04:07:46;16.30;1.00
5276;DHT22;2661;50.786;12.728;2023-06-22T04:10:13;16.40;99.90
5276;DHT22;2661;50.786;12.728;2023-06-22T04:12:42;16.40;99.90
5276;DHT22;2661;50.786;12.728;2023-06-22T04:15:09;16.50;99.90
5276;DHT22;2661;50.786;12.728;2023-06-22T04:17:36;16.60;1.00
5276;DHT22;2661;50.786;12.728;2023-06-22T04:20:02;16.70;1.00
5276;DHT22;2661;50.786;12.728;2023-06-22T04:22:30;16.80;1.00
5276;DHT22;2661;50.786;12.728;2023-06-22T04:24:56;16.90;1.00
5276;DHT22;2661;50.786;12.728;2023-06-22T04:27:23;16.90;1.00
5276;DHT22;2661;50.786;12.728;2023-06-22T04:29:50;17.00;1.00
5276;DHT22;2661;50.786;12.728;2023-06-22T04:32:17;17.10;1.00
5276;DHT22;2661;50.786;12.728;2023-06-22T04:34:44;17.10;1.00
5276;DHT22;2661;50.786;12.728;2023-06-22T04:37:10;17.20;99.90
5276;DHT22;2661;50.786;12.728;2023-06-22T04:39:42;17.20;99.90
5276;DHT22;2661;50.786;12.728;2023-06-22T04:42:09;17.30;99.90
5276;DHT22;2661;50.786;12.728;2023-06-22T04:44:36;17.30;99.90
5276;DHT22;2661;50.786;12.728;2023-06-22T04:47:02;17.30;99.90
5276;DHT22;2661;50.786;12.728;2023-06-22T04:49:30;17.30;99.90
5276;DHT22;2661;50.786;12.728;2023-06-22T04:52:01;17.30;99.90
5276;DHT22;2661;50.786;12.728;2023-06-22T04:54:28;17.40;99.90
5276;DHT22;2661;50.786;12.728;2023-06-22T04:56:55;17.50;1.00
5276;DHT22;2661;50.786;12.728;2023-06-22T04:59:26;17.50;99.90
5276;DHT22;2661;50.786;12.728;2023-06-22T05:01:55;17.60;99.90
5276;DHT22;2661;50.786;12.728;2023-06-22T05:04:22;17.70;1.00
5276;DHT22;2661;50.786;12.728;2023-06-22T05:06:50;17.80;1.00
5276;DHT22;2661;50.786;12.728;2023-06-22T05:09:17;17.90;99.90
5276;DHT22;2661;50.786;12.728;2023-06-22T05:11:44;18.10;38.50
5276;DHT22;2661;50.786;12.728;2023-06-22T05:14:11;18.20;1.00
5276;DHT22;2661;50.786;12.728;2023-06-22T05:16:37;18.30;1.00
5276;DHT22;2661;50.786;12.728;2023-06-22T05:19:04;18.30;1.00
5276;DHT22;2661;50.786;12.728;2023-06-22T05:21:31;18.40;1.00
5276;DHT22;2661;50.786;12.728;2023-06-22T05:23:58;18.40;1.00
5276;DHT22;2661;50.786;12.728;2023-06-22T05:26:28;18.50;1.00
5276;DHT22;2661;50.786;12.728;2023-06-22T05:28:55;18.60;1.00
5276;DHT22;2661;50.786;12.728;2023-06-22T05:31:21;18.70;1.00
5276;DHT22;2661;50.786;12.728;2023-06-22T05:33:50;18.80;99.90
5276;DHT22;2661;50.786;12.728;2023-06-22T05:36:17;18.90;1.00
5276;DHT22;2661;50.786;12.728;2023-06-22T05:38:45;18.90;1.00
5276;DHT22;2661;50.786;12.728;2023-06-22T05:41:11;18.90;1.00
5276;DHT22;2661;50.786;12.728;2023-06-22T05:43:38;19.00;1.00
5276;DHT22;2661;50.786;12.728;2023-06-22T05:46:04;19.10;1.00
5276;DHT22;2661;50.786;12.728;2023-06-22T05:48:31;19.20;99.90
5276;DHT22;2661;50.786;12.728;2023-06-22T05:50:58;19.40;99.90
5276;DHT22;2661;50.786;12.728;2023-06-22T05:53:25;19.50;99.90
5276;DHT22;2661;50.786;12.728;2023-06-22T05:55:51;19.60;99.90
5276;DHT22;2661;50.786;12.728;2023-06-22T05:58:18;19.70;99.90
5276;DHT22;2661;50.786;12.728;2023-06-22T06:00:45;19.80;99.90
5276;DHT22;2661;50.786;12.728;2023-06-22T06:03:12;19.90;97.20
5276;DHT22;2661;50.786;12.728;2023-06-22T06:05:41;20.00;1.00
5276;DHT22;2661;50.786;12.728;2023-06-22T06:08:07;20.20;1.00
5276;DHT22;2661;50.786;12.728;2023-06-22T06:10:34;20.30;1.00
5276;DHT22;2661;50.786;12.728;2023-06-22T06:13:01;20.50;1.00
5276;DHT22;2661;50.786;12.728;2023-06-22T06:15:29;20.70;1.00
5276;DHT22;2661;50.786;12.728;2023-06-22T06:17:55;20.90;1.00
5276;DHT22;2661;50.786;12.728;2023-06-22T06:20:22;20.90;1.00
5276;DHT22;2661;50.786;12.728;2023-06-22T06:22:50;21.10;1.00
5276;DHT22;2661;50.786;12.728;2023-06-22T06:25:16;21.20;1.00
5276;DHT22;2661;50.786;12.728;2023-06-22T06:27:47;21.10;1.00
5276;DHT22;2661;50.786;12.728;2023-06-22T06:30:14;21.20;1.00
5276;DHT22;2661;50.786;12.728;2023-06-22T06:32:41;21.20;1.00
5276;DHT22;2661;50.786;12.728;2023-06-22T06:35:09;21.20;1.00
5276;DHT22;2661;50.786;12.728;2023-06-22T06:37:39;21.20;1.00
5276;DHT22;2661;50.786;12.728;2023-06-22T06:40:06;21.20;1.00
5276;DHT22;2661;50.786;12.728;2023-06-22T06:42:37;21.20;1.00
5276;DHT22;2661;50.786;12.728;2023-06-22T06:45:12;21.20;1.00
5276;DHT22;2661;50.786;12.728;2023-06-22T06:47:39;21.20;1.00
5276;DHT22;2661;50.786;12.728;2023-06-22T06:50:06;21.30;1.00
5276;DHT22;2661;50.786;12.728;2023-06-22T06:52:34;21.40;1.00
5276;DHT22;2661;50.786;12.728;2023-06-22T06:55:04;21.50;1.00
5276;DHT22;2661;50.786;12.728;2023-06-22T06:57:31;21.50;1.00
5276;DHT22;2661;50.786;12.728;2023-06-22T06:59:58;21.50;1.00
5276;DHT22;2661;50.786;12.728;2023-06-22T07:02:25;21.60;1.00
5276;DHT22;2661;50.786;12.728;2023-06-22T07:04:54;21.50;1.00
5276;DHT22;2661;50.786;12.728;2023-06-22T07:07:21;21.60;1.00
5276;DHT22;2661;50.786;12.728;2023-06-22T07:09:48;21.60;1.00
5276;DHT22;2661;50.786;12.728;2023-06-22T07:12:15;21.80;1.00
5276;DHT22;2661;50.786;12.728;2023-06-22T07:14:42;21.80;1.00
5276;DHT22;2661;50.786;12.728;2023-06-22T07:17:08;21.80;1.00
5276;DHT22;2661;50.786;12.728;2023-06-22T07:19:35;21.80;1.00
5276;DHT22;2661;50.786;12.728;2023-06-22T07:22:01;21.90;1.00
5276;DHT22;2661;50.786;12.728;2023-06-22T07:24:28;21.80;1.00
5276;DHT22;2661;50.786;12.728;2023-06-22T07:26:55;21.90;1.00
5276;DHT22;2661;50.786;12.728;2023-06-22T07:29:25;22.00;1.00
5276;DHT22;2661;50.786;12.728;2023-06-22T07:31:53;22.10;1.00
5276;DHT22;2661;50.786;12.728;2023-06-22T07:34:19;22.20;1.00
5276;DHT22;2661;50.786;12.728;2023-06-22T07:36:46;22.20;1.00
5276;DHT22;2661;50.786;12.728;2023-06-22T07:39:13;22.30;1.00
5276;DHT22;2661;50.786;12.728;2023-06-22T07:41:41;22.30;1.00
5276;DHT22;2661;50.786;12.728;2023-06-22T07:44:07;22.40;1.00
5276;DHT22;2661;50.786;12.728;2023-06-22T07:46:34;22.40;1.00
5276;DHT22;2661;50.786;12.728;2023-06-22T07:49:01;22.50;1.00
5276;DHT22;2661;50.786;12.728;2023-06-22T07:51:28;22.50;1.00
5276;DHT22;2661;50.786;12.728;2023-06-22T07:53:54;22.60;1.00
5276;DHT22;2661;50.786;12.728;2023-06-22T07:56:21;22.70;1.00
5276;DHT22;2661;50.786;12.728;2023-06-22T07:58:47;22.80;1.00
5276;DHT22;2661;50.786;12.728;2023-06-22T08:01:14;22.80;1.00
5276;DHT22;2661;50.786;12.728;2023-06-22T08:03:41;22.80;1.00
5276;DHT22;2661;50.786;12.728;2023-06-22T08:06:07;22.90;1.00
5276;DHT22;2661;50.786;12.728;2023-06-22T08:08:36;23.00;1.00
5276;DHT22;2661;50.786;12.728;2023-06-22T08:11:02;23.10;1.00
5276;DHT22;2661;50.786;12.728;2023-06-22T08:13:29;23.20;1.00
5276;DHT22;2661;50.786;12.728;2023-06-22T08:15:55;23.30;1.00
5276;DHT22;2661;50.786;12.728;2023-06-22T08:18:22;23.30;1.00
5276;DHT22;2661;50.786;12.728;2023-06-22T08:20:48;23.40;1.00
5276;DHT22;2661;50.786;12.728;2023-06-22T08:23:16;23.50;1.00
5276;DHT22;2661;50.786;12.728;2023-06-22T08:25:43;23.50;1.00
5276;DHT22;2661;50.786;12.728;2023-06-22T08:28:09;23.60;1.00
5276;DHT22;2661;50.786;12.728;2023-06-22T08:30:36;23.70;1.00
5276;DHT22;2661;50.786;12.728;2023-06-22T08:33:03;23.70;1.00
5276;DHT22;2661;50.786;12.728;2023-06-22T08:35:30;23.70;1.00
5276;DHT22;2661;50.786;12.728;2023-06-22T08:37:57;23.80;1.00
5276;DHT22;2661;50.786;12.728;2023-06-22T08:40:24;23.90;1.00
5276;DHT22;2661;50.786;12.728;2023-06-22T08:42:51;23.90;1.00
5276;DHT22;2661;50.786;12.728;2023-06-22T08:45:17;23.90;1.00
5276;DHT22;2661;50.786;12.728;2023-06-22T08:47:44;23.90;1.00
5276;DHT22;2661;50.786;12.728;2023-06-22T08:50:11;24.00;1.00
5276;DHT22;2661;50.786;12.728;2023-06-22T08:52:38;24.10;1.00
5276;DHT22;2661;50.786;12.728;2023-06-22T08:55:07;24.20;1.00
5276;DHT22;2661;50.786;12.728;2023-06-22T08:57:35;24.20;1.00
5276;DHT22;2661;50.786;12.728;2023-06-22T09:00:07;24.30;1.00
5276;DHT22;2661;50.786;12.728;2023-06-22T09:02:44;24.30;1.00
5276;DHT22;2661;50.786;12.728;2023-06-22T09:05:12;24.30;1.00
5276;DHT22;2661;50.786;12.728;2023-06-22T09:07:38;24.30;1.00
5276;DHT22;2661;50.786;12.728;2023-06-22T09:10:05;24.40;1.00
5276;DHT22;2661;50.786;12.728;2023-06-22T09:12:32;24.30;1.00
5276;DHT22;2661;50.786;12.728;2023-06-22T09:14:59;24.40;66.30
5276;DHT22;2661;50.786;12.728;2023-06-22T09:17:29;24.30;1.00
5276;DHT22;2661;50.786;12.728;2023-06-22T09:19:56;24.30;1.00
5276;DHT22;2661;50.786;12.728;2023-06-22T09:22:23;24.40;31.50
5276;DHT22;2661;50.786;12.728;2023-06-22T09:24:49;24.40;1.00
5276;DHT22;2661;50.786;12.728;2023-06-22T09:27:16;24.50;1.00
5276;DHT22;2661;50.786;12.728;2023-06-22T09:29:42;24.60;1.00
5276;DHT22;2661;50.786;12.728;2023-06-22T09:32:09;24.60;1.00
5276;DHT22;2661;50.786;12.728;2023-06-22T09:34:36;24.70;3.00
5276;DHT22;2661;50.786;12.728;2023-06-22T09:37:03;24.60;1.00
5276;DHT22;2661;50.786;12.728;2023-06-22T09:39:29;24.50;1.00
5276;DHT22;2661;50.786;12.728;2023-06-22T09:41:58;24.50;1.00
5276;DHT22;2661;50.786;12.728;2023-06-22T09:44:25;24.50;1.00
5276;DHT22;2661;50.786;12.728;2023-06-22T09:46:52;24.60;1.00
5276;DHT22;2661;50.786;12.728;2023-06-22T09:49:19;24.70;1.00
5276;DHT22;2661;50.786;12.728;2023-06-22T09:52:03;24.80;1.00
5276;DHT22;2661;50.786;12.728;2023-06-22T09:54:30;24.80;1.00
5276;DHT22;2661;50.786;12.728;2023-06-22T09:56:56;24.90;1.00
5276;DHT22;2661;50.786;12.728;2023-06-22T09:59:23;24.90;1.00
5276;DHT22;2661;50.786;12.728;2023-06-22T10:01:49;25.00;1.00
5276;DHT22;2661;50.786;12.728;2023-06-22T10:04:16;25.20;1.00
5276;DHT22;2661;50.786;12.728;2023-06-22T10:06:44;25.20;1.00
5276;DHT22;2661;50.786;12.728;2023-06-22T10:09:10;25.20;1.00
5276;DHT22;2661;50.786;12.728;2023-06-22T10:11:37;25.10;1.00
5276;DHT22;2661;50.786;12.728;2023-06-22T10:14:03;25.20;1.00
5276;DHT22;2661;50.786;12.728;2023-06-22T10:16:31;25.30;1.00
5276;DHT22;2661;50.786;12.728;2023-06-22T10:18:57;25.30;1.00
5276;DHT22;2661;50.786;12.728;2023-06-22T10:21:24;25.20;1.00
5276;DHT22;2661;50.786;12.728;2023-06-22T10:23:52;25.20;1.00
5276;DHT22;2661;50.786;12.728;2023-06-22T10:26:19;25.30;1.00
5276;DHT22;2661;50.786;12.728;2023-06-22T10:28:46;25.40;1.00
5276;DHT22;2661;50.786;12.728;2023-06-22T10:31:12;25.40;1.00
5276;DHT22;2661;50.786;12.728;2023-06-22T10:33:39;25.70;1.00
5276;DHT22;2661;50.786;12.728;2023-06-22T10:36:07;25.70;1.00
5276;DHT22;2661;50.786;12.728;2023-06-22T10:38:34;25.70;1.00
5276;DHT22;2661;50.786;12.728;2023-06-22T10:41:01;25.70;1.00
5276;DHT22;2661;50.786;12.728;2023-06-22T10:43:27;25.70;1.00
5276;DHT22;2661;50.786;12.728;2023-06-22T10:45:54;25.70;1.00
5276;DHT22;2661;50.786;12.728;2023-06-22T10:48:21;25.70;1.00
5276;DHT22;2661;50.786;12.728;2023-06-22T10:50:47;25.70;1.00
5276;DHT22;2661;50.786;12.728;2023-06-22T10:53:14;25.70;1.00
5276;DHT22;2661;50.786;12.728;2023-06-22T10:55:47;25.90;1.00
5276;DHT22;2661;50.786;12.728;2023-06-22T10:58:23;25.90;1.00
5276;DHT22;2661;50.786;12.728;2023-06-22T11:00:49;26.00;1.00
5276;DHT22;2661;50.786;12.728;2023-06-22T11:03:16;26.20;1.00
5276;DHT22;2661;50.786;12.728;2023-06-22T11:05:43;26.20;1.00
5276;DHT22;2661;50.786;12.728;2023-06-22T11:08:09;26.20;1.00
5276;DHT22;2661;50.786;12.728;2023-06-22T11:10:36;26.30;1.00
5276;DHT22;2661;50.786;12.728;2023-06-22T11:13:02;26.30;1.00
5276;DHT22;2661;50.786;12.728;2023-06-22T11:15:30;26.30;1.00
5276;DHT22;2661;50.786;12.728;2023-06-22T11:17:57;26.30;1.00
5276;DHT22;2661;50.786;12.728;2023-06-22T11:20:24;26.30;1.00
5276;DHT22;2661;50.786;12.728;2023-06-22T11:22:50;26.30;1.00
5276;DHT22;2661;50.786;12.728;2023-06-22T11:25:17;26.40;1.00
5276;DHT22;2661;50.786;12.728;2023-06-22T11:27:43;26.30;1.00
5276;DHT22;2661;50.786;12.728;2023-06-22T11:30:10;26.20;1.00
5276;DHT22;2661;50.786;12.728;2023-06-22T11:32:37;26.20;1.00
5276;DHT22;2661;50.786;12.728;2023-06-22T11:35:04;26.20;1.00
5276;DHT22;2661;50.786;12.728;2023-06-22T11:37:31;26.20;1.00
5276;DHT22;2661;50.786;12.728;2023-06-22T11:39:57;26.30;1.00
5276;DHT22;2661;50.786;12.728;2023-06-22T11:42:33;26.30;12.20
5276;DHT22;2661;50.786;12.728;2023-06-22T11:45:00;26.30;1.00
5276;DHT22;2661;50.786;12.728;2023-06-22T11:47:27;26.20;17.10
5276;DHT22;2661;50.786;12.728;2023-06-22T11:49:53;26.20;27.00
5276;DHT22;2661;50.786;12.728;2023-06-22T11:52:20;26.30;1.00
5276;DHT22;2661;50.786;12.728;2023-06-22T11:54:47;26.30;23.90
5276;DHT22;2661;50.786;12.728;2023-06-22T11:57:13;26.40;1.00
5276;DHT22;2661;50.786;12.728;2023-06-22T11:59:40;26.50;1.00
5276;DHT22;2661;50.786;12.728;2023-06-22T12:02:07;26.50;1.00
5276;DHT22;2661;50.786;12.728;2023-06-22T12:04:33;26.60;9.80
5276;DHT22;2661;50.786;12.728;2023-06-22T12:07:01;26.60;1.00
5276;DHT22;2661;50.786;12.728;2023-06-22T12:09:29;26.60;1.00
5276;DHT22;2661;50.786;12.728;2023-06-22T12:11:55;26.70;1.00
5276;DHT22;2661;50.786;12.728;2023-06-22T12:14:22;26.70;1.00
5276;DHT22;2661;50.786;12.728;2023-06-22T12:16:48;26.70;1.00
5276;DHT22;2661;50.786;12.728;2023-06-22T12:19:15;26.90;43.70
5276;DHT22;2661;50.786;12.728;2023-06-22T12:21:42;27.00;1.00
5276;DHT22;2661;50.786;12.728;2023-06-22T12:24:11;27.10;1.00
5276;DHT22;2661;50.786;12.728;2023-06-22T12:26:38;27.10;23.10
5276;DHT22;2661;50.786;12.728;2023-06-22T12:29:05;27.10;1.00
5276;DHT22;2661;50.786;12.728;2023-06-22T12:31:31;27.10;8.60
5276;DHT22;2661;50.786;12.728;2023-06-22T12:33:58;27.10;1.00
5276;DHT22;2661;50.786;12.728;2023-06-22T12:36:24;27.10;1.00
5276;DHT22;2661;50.786;12.728;2023-06-22T12:38:51;27.00;1.00
5276;DHT22;2661;50.786;12.728;2023-06-22T12:41:19;27.00;1.00
5276;DHT22;2661;50.786;12.728;2023-06-22T12:43:46;26.90;1.00
5276;DHT22;2661;50.786;12.728;2023-06-22T12:46:13;26.80;1.00
5276;DHT22;2661;50.786;12.728;2023-06-22T12:48:39;26.90;82.90
5276;DHT22;2661;50.786;12.728;2023-06-22T12:51:09;27.00;49.00
5276;DHT22;2661;50.786;12.728;2023-06-22T12:53:35;27.10;10.70
5276;DHT22;2661;50.786;12.728;2023-06-22T12:56:02;27.20;37.70
5276;DHT22;2661;50.786;12.728;2023-06-22T12:58:31;27.30;23.80
5276;DHT22;2661;50.786;12.728;2023-06-22T13:00:57;27.30;56.80
5276;DHT22;2661;50.786;12.728;2023-06-22T13:03:24;27.30;67.10
5276;DHT22;2661;50.786;12.728;2023-06-22T13:05:52;27.30;72.80
5276;DHT22;2661;50.786;12.728;2023-06-22T13:08:19;27.30;32.50
5276;DHT22;2661;50.786;12.728;2023-06-22T13:10:45;27.30;43.40
5276;DHT22;2661;50.786;12.728;2023-06-22T13:13:12;27.30;38.00
5276;DHT22;2661;50.786;12.728;2023-06-22T13:15:38;27.40;70.20
5276;DHT22;2661;50.786;12.728;2023-06-22T13:18:05;27.40;51.10
5276;DHT22;2661;50.786;12.728;2023-06-22T13:20:32;27.50;64.50
5276;DHT22;2661;50.786;12.728;2023-06-22T13:22:58;27.50;75.40
5276;DHT22;2661;50.786;12.728;2023-06-22T13:25:25;27.60;32.10
5276;DHT22;2661;50.786;12.728;2023-06-22T13:27:53;27.60;55.10
5276;DHT22;2661;50.786;12.728;2023-06-22T13:30:22;27.60;27.80
5276;DHT22;2661;50.786;12.728;2023-06-22T13:32:49;27.60;40.00
5276;DHT22;2661;50.786;12.728;2023-06-22T13:35:15;27.60;65.00
5276;DHT22;2661;50.786;12.728;2023-06-22T13:37:42;27.60;55.30
5276;DHT22;2661;50.786;12.728;2023-06-22T13:40:08;27.60;68.60
5276;DHT22;2661;50.786;12.728;2023-06-22T13:42:35;27.80;33.20
5276;DHT22;2661;50.786;12.728;2023-06-22T13:45:02;27.90;45.80
5276;DHT22;2661;50.786;12.728;2023-06-22T13:47:29;28.00;12.40
5276;DHT22;2661;50.786;12.728;2023-06-22T13:49:57;28.10;59.10
5276;DHT22;2661;50.786;12.728;2023-06-22T13:52:24;28.20;18.90
5276;DHT22;2661;50.786;12.728;2023-06-22T13:54:51;28.30;52.40
5276;DHT22;2661;50.786;12.728;2023-06-22T13:57:17;28.30;23.30
5276;DHT22;2661;50.786;12.728;2023-06-22T13:59:44;28.40;66.30
5276;DHT22;2661;50.786;12.728;2023-06-22T14:02:10;28.30;16.80
5276;DHT22;2661;50.786;12.728;2023-06-22T14:04:37;28.30;29.90
5276;DHT22;2661;50.786;12.728;2023-06-22T14:07:04;28.30;61.30
5276;DHT22;2661;50.786;12.728;2023-06-22T14:09:31;28.30;39.60
5276;DHT22;2661;50.786;12.728;2023-06-22T14:11:57;28.30;85.30
5276;DHT22;2661;50.786;12.728;2023-06-22T14:14:24;28.40;92.70
5276;DHT22;2661;50.786;12.728;2023-06-22T14:16:51;28.50;58.30
5276;DHT22;2661;50.786;12.728;2023-06-22T14:19:17;28.60;54.30
5276;DHT22;2661;50.786;12.728;2023-06-22T14:21:45;28.80;37.20
5276;DHT22;2661;50.786;12.728;2023-06-22T14:24:11;28.90;31.50
5276;DHT22;2661;50.786;12.728;2023-06-22T14:26:38;28.90;74.40
5276;DHT22;2661;50.786;12.728;2023-06-22T14:29:05;28.80;99.90
5276;DHT22;2661;50.786;12.728;2023-06-22T14:31:31;28.80;83.70
5276;DHT22;2661;50.786;12.728;2023-06-22T14:34:00;28.80;38.10
5276;DHT22;2661;50.786;12.728;2023-06-22T14:36:26;28.70;61.30
5276;DHT22;2661;50.786;12.728;2023-06-22T14:38:53;28.70;38.90
5276;DHT22;2661;50.786;12.728;2023-06-22T14:41:20;28.70;45.20
5276;DHT22;2661;50.786;12.728;2023-06-22T14:43:47;28.70;64.30
5276;DHT22;2661;50.786;12.728;2023-06-22T14:46:14;28.70;99.90
5276;DHT22;2661;50.786;12.728;2023-06-22T14:48:42;28.70;71.10
5276;DHT22;2661;50.786;12.728;2023-06-22T14:51:08;28.70;69.20
5276;DHT22;2661;50.786;12.728;2023-06-22T14:53:39;28.80;25.90
5276;DHT22;2661;50.786;12.728;2023-06-22T14:56:05;28.80;54.90
5276;DHT22;2661;50.786;12.728;2023-06-22T14:58:33;28.80;94.30
5276;DHT22;2661;50.786;12.728;2023-06-22T15:01:00;28.90;11.60
5276;DHT22;2661;50.786;12.728;2023-06-22T15:03:28;29.00;43.40
5276;DHT22;2661;50.786;12.728;2023-06-22T15:05:57;29.00;62.00
5276;DHT22;2661;50.786;12.728;2023-06-22T15:08:24;29.10;69.10
5276;DHT22;2661;50.786;12.728;2023-06-22T15:10:52;29.20;99.90
5276;DHT22;2661;50.786;12.728;2023-06-22T15:13:18;29.20;40.80
5276;DHT22;2661;50.786;12.728;2023-06-22T15:15:46;29.20;90.70
5276;DHT22;2661;50.786;12.728;2023-06-22T15:18:13;29.30;99.90
5276;DHT22;2661;50.786;12.728;2023-06-22T15:20:40;29.30;75.30
5276;DHT22;2661;50.786;12.728;2023-06-22T15:23:08;29.30;82.10
5276;DHT22;2661;50.786;12.728;2023-06-22T15:25:36;29.30;93.50
5276;DHT22;2661;50.786;12.728;2023-06-22T15:28:04;29.10;41.00
5276;DHT22;2661;50.786;12.728;2023-06-22T15:30:31;28.90;73.80
5276;DHT22;2661;50.786;12.728;2023-06-22T15:32:58;28.70;56.60
5276;DHT22;2661;50.786;12.728;2023-06-22T15:35:25;28.60;73.70
5276;DHT22;2661;50.786;12.728;2023-06-22T15:37:51;28.50;84.40
5276;DHT22;2661;50.786;12.728;2023-06-22T15:40:18;28.60;59.10
5276;DHT22;2661;50.786;12.728;2023-06-22T15:42:44;28.60;94.60
5276;DHT22;2661;50.786;12.728;2023-06-22T15:45:16;28.80;78.60
5276;DHT22;2661;50.786;12.728;2023-06-22T15:47:43;28.90;58.90
5276;DHT22;2661;50.786;12.728;2023-06-22T15:50:10;29.10;99.90
5276;DHT22;2661;50.786;12.728;2023-06-22T15:52:39;29.30;99.90
5276;DHT22;2661;50.786;12.728;2023-06-22T15:55:06;29.40;99.90
5276;DHT22;2661;50.786;12.728;2023-06-22T15:57:34;29.30;99.90